sensor_id;sensor_type;location;lat;lon;timestamp;pressure;altitude;pressure_sealevel;temperature;humidity
11856;BME280;5987;53.140;8.904;2022-09-01T00:01:11;102366.44;;;12.61;68.35
11856;BME280;5987;53.140;8.904;2022-09-01T00:04:20;102370.88;;;12.57;68.51
11856;BME280;5987;53.140;8.904;2022-09-01T00:07:25;102365.69;;;12.54;68.66
11856;BME280;5987;53.140;8.904;2022-09-01T00:10:31;102365.72;;;12.52;69.01
11856;BME280;5987;53.140;8.904;2022-09-01T00:13:37;102373.69;;;12.49;69.07
11856;BME280;5987;53.140;8.904;2022-09-01T00:16:41;102384.22;;;12.49;68.86
11856;BME280;5987;53.140;8.904;2022-09-01T00:19:45;102368.47;;;12.46;69.19
11856;BME280;5987;53.140;8.904;2022-09-01T00:22:48;102369.44;;;12.42;69.25
11856;BME280;5987;53.140;8.904;2022-09-01T00:25:53;102377.34;;;12.42;69.41
11856;BME280;5987;53.140;8.904;2022-09-01T00:28:58;102379.19;;;12.37;69.48
11856;BME280;5987;53.140;8.904;2022-09-01T00:32:02;102378.38;;;12.35;69.57
11856;BME280;5987;53.140;8.904;2022-09-01T00:35:07;102383.63;;;12.35;69.65
11856;BME280;5987;53.140;8.904;2022-09-01T00:38:11;102373.91;;;12.37;69.78
11856;BME280;5987;53.140;8.904;2022-09-01T00:41:17;102375.63;;;12.40;69.91
11856;BME280;5987;53.140;8.904;2022-09-01T00:44:22;102383.53;;;12.40;69.72
11856;BME280;5987;53.140;8.904;2022-09-01T00:47:32;102376.50;;;12.40;69.80
11856;BME280;5987;53.140;8.904;2022-09-01T00:50:37;102373.84;;;12.40;70.02
11856;BME280;5987;53.140;8.904;2022-09-01T00:53:43;102372.06;;;12.42;70.08
11856;BME280;5987;53.140;8.904;2022-09-01T00:56:49;102370.19;;;12.47;69.87
11856;BME280;5987;53.140;8.904;2022-09-01T01:00:07;102360.63;;;12.45;69.94
11856;BME280;5987;53.140;8.904;2022-09-01T01:03:13;102368.53;;;12.45;69.81
11856;BME280;5987;53.140;8.904;2022-09-01T01:06:18;102372.94;;;12.43;70.05
11856;BME280;5987;53.140;8.904;2022-09-01T01:09:39;102370.28;;;12.43;69.93
11856;BME280;5987;53.140;8.904;2022-09-01T01:12:44;102373.16;;;12.30;70.25
11856;BME280;5987;53.140;8.904;2022-09-01T01:15:49;102375.97;;;12.23;70.27
11856;BME280;5987;53.140;8.904;2022-09-01T01:18:54;102378.78;;;12.12;71.16
11856;BME280;5987;53.140;8.904;2022-09-01T01:22:00;102382.31;;;12.12;71.24
11856;BME280;5987;53.140;8.904;2022-09-01T01:25:23;102371.09;;;11.99;71.63
11856;BME280;5987;53.140;8.904;2022-09-01T01:28:30;102371.09;;;12.01;71.86
11856;BME280;5987;53.140;8.904;2022-09-01T01:31:35;102378.31;;;11.87;72.15
11856;BME280;5987;53.140;8.904;2022-09-01T01:34:39;102382.81;;;11.81;72.31
11856;BME280;5987;53.140;8.904;2022-09-01T01:37:49;102378.47;;;11.79;72.83
11856;BME280;5987;53.140;8.904;2022-09-01T01:40:54;102375.81;;;11.80;72.93
11856;BME280;5987;53.140;8.904;2022-09-01T01:44:00;102386.44;;;11.73;73.00
11856;BME280;5987;53.140;8.904;2022-09-01T01:47:11;102376.81;;;11.73;73.37
11856;BME280;5987;53.140;8.904;2022-09-01T01:50:15;102376.81;;;11.73;73.56
11856;BME280;5987;53.140;8.904;2022-09-01T01:53:20;102383.78;;;11.74;73.50
11856;BME280;5987;53.140;8.904;2022-09-01T01:56:25;102379.38;;;11.76;73.66
11856;BME280;5987;53.140;8.904;2022-09-01T01:59:29;102379.50;;;11.70;73.52
11856;BME280;5987;53.140;8.904;2022-09-01T02:02:35;102378.59;;;11.71;73.97
11856;BME280;5987;53.140;8.904;2022-09-01T02:05:39;102385.66;;;11.69;73.80
11856;BME280;5987;53.140;8.904;2022-09-01T02:08:43;102377.75;;;11.69;74.14
11856;BME280;5987;53.140;8.904;2022-09-01T02:11:48;102376.91;;;11.65;74.13
11856;BME280;5987;53.140;8.904;2022-09-01T02:14:58;102376.94;;;11.64;74.44
11856;BME280;5987;53.140;8.904;2022-09-01T02:18:04;102383.22;;;11.57;74.57
11856;BME280;5987;53.140;8.904;2022-09-01T02:21:10;102378.84;;;11.56;74.98
11856;BME280;5987;53.140;8.904;2022-09-01T02:24:20;102380.63;;;11.54;74.93
11856;BME280;5987;53.140;8.904;2022-09-01T02:27:26;102372.78;;;11.50;74.95
11856;BME280;5987;53.140;8.904;2022-09-01T02:30:30;102371.03;;;11.51;75.02
11856;BME280;5987;53.140;8.904;2022-09-01T02:33:36;102375.44;;;11.47;75.02
11856;BME280;5987;53.140;8.904;2022-09-01T02:36:41;102375.44;;;11.47;75.46
11856;BME280;5987;53.140;8.904;2022-09-01T02:39:48;102382.50;;;11.45;75.69
11856;BME280;5987;53.140;8.904;2022-09-01T02:42:53;102371.97;;;11.47;75.64
11856;BME280;5987;53.140;8.904;2022-09-01T02:46:00;102369.34;;;11.47;76.00
11856;BME280;5987;53.140;8.904;2022-09-01T02:49:04;102367.69;;;11.40;75.98
11856;BME280;5987;53.140;8.904;2022-09-01T02:52:09;102372.16;;;11.33;76.39
11856;BME280;5987;53.140;8.904;2022-09-01T02:55:18;102365.09;;;11.38;76.72
11856;BME280;5987;53.140;8.904;2022-09-01T02:58:25;102364.19;;;11.38;76.65
11856;BME280;5987;53.140;8.904;2022-09-01T03:01:31;102358.09;;;11.37;76.63
11856;BME280;5987;53.140;8.904;2022-09-01T03:04:35;102367.69;;;11.40;76.85
11856;BME280;5987;53.140;8.904;2022-09-01T03:07:40;102363.34;;;11.37;77.07
11856;BME280;5987;53.140;8.904;2022-09-01T03:10:44;102363.34;;;11.37;76.98
11856;BME280;5987;53.140;8.904;2022-09-01T03:13:51;102361.66;;;11.33;77.05
11856;BME280;5987;53.140;8.904;2022-09-01T03:16:54;102359.16;;;11.25;77.29
11856;BME280;5987;53.140;8.904;2022-09-01T03:19:58;102359.06;;;11.30;77.56
11856;BME280;5987;53.140;8.904;2022-09-01T03:23:06;102356.44;;;11.30;77.45
11856;BME280;5987;53.140;8.904;2022-09-01T03:26:10;102363.47;;;11.29;77.77
11856;BME280;5987;53.140;8.904;2022-09-01T03:29:16;102366.91;;;11.33;77.78
11856;BME280;5987;53.140;8.904;2022-09-01T03:32:19;102366.09;;;11.29;78.07
11856;BME280;5987;53.140;8.904;2022-09-01T03:35:24;102362.63;;;11.27;78.18
11856;BME280;5987;53.140;8.904;2022-09-01T03:38:29;102351.28;;;11.22;78.23
11856;BME280;5987;53.140;8.904;2022-09-01T03:41:33;102358.31;;;11.22;78.58
11856;BME280;5987;53.140;8.904;2022-09-01T03:44:40;102352.19;;;11.21;78.67
11856;BME280;5987;53.140;8.904;2022-09-01T03:47:48;102347.81;;;11.22;78.63
11856;BME280;5987;53.140;8.904;2022-09-01T03:50:52;102344.34;;;11.20;78.92
11856;BME280;5987;53.140;8.904;2022-09-01T03:53:57;102349.59;;;11.20;78.74
11856;BME280;5987;53.140;8.904;2022-09-01T03:57:01;102351.34;;;11.19;79.07
11856;BME280;5987;53.140;8.904;2022-09-01T04:00:10;102348.69;;;11.21;79.06
11856;BME280;5987;53.140;8.904;2022-09-01T04:03:25;102358.31;;;11.22;78.93
11856;BME280;5987;53.140;8.904;2022-09-01T04:06:30;102348.72;;;11.19;79.12
11856;BME280;5987;53.140;8.904;2022-09-01T04:09:34;102351.34;;;11.19;79.63
11856;BME280;5987;53.140;8.904;2022-09-01T04:12:37;102353.97;;;11.19;79.45
11856;BME280;5987;53.140;8.904;2022-09-01T04:15:42;102353.16;;;11.15;79.46
11856;BME280;5987;53.140;8.904;2022-09-01T04:18:46;102352.28;;;11.15;79.62
11856;BME280;5987;53.140;8.904;2022-09-01T04:21:55;102351.41;;;11.14;79.47
11856;BME280;5987;53.140;8.904;2022-09-01T04:25:00;102353.22;;;11.11;79.54
11856;BME280;5987;53.140;8.904;2022-09-01T04:28:04;102349.78;;;11.07;79.89
11856;BME280;5987;53.140;8.904;2022-09-01T04:31:18;102354.16;;;11.05;79.91
11856;BME280;5987;53.140;8.904;2022-09-01T04:34:22;102355.94;;;11.05;80.11
11856;BME280;5987;53.140;8.904;2022-09-01T04:37:27;102356.84;;;11.02;80.24
11856;BME280;5987;53.140;8.904;2022-09-01T04:40:31;102354.19;;;11.04;80.21
11856;BME280;5987;53.140;8.904;2022-09-01T04:43:35;102362.16;;;10.99;80.52
11856;BME280;5987;53.140;8.904;2022-09-01T04:46:42;102360.34;;;11.01;80.99
11856;BME280;5987;53.140;8.904;2022-09-01T04:49:47;102361.22;;;11.03;80.80
11856;BME280;5987;53.140;8.904;2022-09-01T04:52:54;102364.75;;;11.01;81.06
11856;BME280;5987;53.140;8.904;2022-09-01T04:56:16;102361.25;;;11.02;81.35
11856;BME280;5987;53.140;8.904;2022-09-01T04:59:23;102355.97;;;11.03;81.19
11856;BME280;5987;53.140;8.904;2022-09-01T05:02:29;102355.09;;;11.01;81.24
11856;BME280;5987;53.140;8.904;2022-09-01T05:05:38;102358.69;;;10.97;81.60
11856;BME280;5987;53.140;8.904;2022-09-01T05:08:45;102366.56;;;10.98;81.57
11856;BME280;5987;53.140;8.904;2022-09-01T05:11:48;102368.28;;;10.98;81.58
11856;BME280;5987;53.140;8.904;2022-09-01T05:14:52;102376.09;;;11.04;81.75
11856;BME280;5987;53.140;8.904;2022-09-01T05:17:58;102368.19;;;11.07;81.71
11856;BME280;5987;53.140;8.904;2022-09-01T05:21:11;102369.91;;;11.10;81.58
11856;BME280;5987;53.140;8.904;2022-09-01T05:24:19;102368.94;;;11.15;81.75
11856;BME280;5987;53.140;8.904;2022-09-01T05:27:23;102370.59;;;11.23;81.68
11856;BME280;5987;53.140;8.904;2022-09-01T05:30:29;102372.16;;;11.33;81.36
11856;BME280;5987;53.140;8.904;2022-09-01T05:33:35;102371.13;;;11.45;81.44
11856;BME280;5987;53.140;8.904;2022-09-01T05:36:45;102373.56;;;11.56;80.97
11856;BME280;5987;53.140;8.904;2022-09-01T05:39:51;102377.75;;;11.69;80.76
11856;BME280;5987;53.140;8.904;2022-09-01T05:42:56;102381.91;;;11.82;80.34
11856;BME280;5987;53.140;8.904;2022-09-01T05:46:04;102368.44;;;12.03;80.01
11856;BME280;5987;53.140;8.904;2022-09-01T05:49:11;102369.06;;;12.15;79.41
11856;BME280;5987;53.140;8.904;2022-09-01T05:52:18;102364.50;;;12.25;78.74
11856;BME280;5987;53.140;8.904;2022-09-01T05:55:26;102367.59;;;12.46;78.59
11856;BME280;5987;53.140;8.904;2022-09-01T05:58:36;102369.06;;;12.61;78.14
11856;BME280;5987;53.140;8.904;2022-09-01T06:02:01;102372.84;;;12.90;77.20
11856;BME280;5987;53.140;8.904;2022-09-01T06:05:08;102374.38;;;13.00;75.86
11856;BME280;5987;53.140;8.904;2022-09-01T06:08:13;102374.00;;;13.17;75.43
11856;BME280;5987;53.140;8.904;2022-09-01T06:11:19;102371.00;;;13.32;74.79
11856;BME280;5987;53.140;8.904;2022-09-01T06:14:26;102369.19;;;13.36;74.51
11856;BME280;5987;53.140;8.904;2022-09-01T06:17:29;102374.38;;;13.41;73.97
11856;BME280;5987;53.140;8.904;2022-09-01T06:20:40;102375.09;;;13.46;73.64
11856;BME280;5987;53.140;8.904;2022-09-01T06:23:45;102376.69;;;13.54;73.72
11856;BME280;5987;53.140;8.904;2022-09-01T06:26:49;102368.41;;;13.68;73.88
11856;BME280;5987;53.140;8.904;2022-09-01T06:29:53;102374.38;;;13.75;73.70
11856;BME280;5987;53.140;8.904;2022-09-01T06:32:57;102374.78;;;13.94;73.49
11856;BME280;5987;53.140;8.904;2022-09-01T06:36:05;102375.09;;;14.15;72.90
11856;BME280;5987;53.140;8.904;2022-09-01T06:39:11;102373.88;;;14.28;73.03
11856;BME280;5987;53.140;8.904;2022-09-01T06:42:21;102374.16;;;14.50;72.22
11856;BME280;5987;53.140;8.904;2022-09-01T06:45:25;102377.41;;;14.60;71.60
11856;BME280;5987;53.140;8.904;2022-09-01T06:48:29;102377.94;;;14.73;70.77
11856;BME280;5987;53.140;8.904;2022-09-01T06:51:34;102382.72;;;14.90;70.70
11856;BME280;5987;53.140;8.904;2022-09-01T06:54:38;102387.38;;;15.10;69.90
11856;BME280;5987;53.140;8.904;2022-09-01T06:57:45;102390.22;;;15.32;69.44
11856;BME280;5987;53.140;8.904;2022-09-01T07:01:09;102392.44;;;15.46;68.36
11856;BME280;5987;53.140;8.904;2022-09-01T07:04:18;102391.13;;;15.31;68.17
11856;BME280;5987;53.140;8.904;2022-09-01T07:07:27;102392.03;;;15.58;68.34
11856;BME280;5987;53.140;8.904;2022-09-01T07:10:55;102402.38;;;15.93;67.16
11856;BME280;5987;53.140;8.904;2022-09-01T07:14:20;102393.53;;;16.19;66.49
11856;BME280;5987;53.140;8.904;2022-09-01T07:17:24;102392.31;;;16.53;65.25
11856;BME280;5987;53.140;8.904;2022-09-01T07:20:28;102397.22;;;16.64;64.20
11856;BME280;5987;53.140;8.904;2022-09-01T07:23:59;102397.44;;;16.81;62.94
11856;BME280;5987;53.140;8.904;2022-09-01T07:27:12;102406.09;;;16.87;62.27
11856;BME280;5987;53.140;8.904;2022-09-01T07:30:19;102399.84;;;16.89;61.96
11856;BME280;5987;53.140;8.904;2022-09-01T07:33:26;102401.47;;;16.93;61.10
11856;BME280;5987;53.140;8.904;2022-09-01T07:36:51;102398.25;;;17.07;61.57
11856;BME280;5987;53.140;8.904;2022-09-01T07:40:21;102401.00;;;17.50;59.61
11856;BME280;5987;53.140;8.904;2022-09-01T07:43:51;102402.09;;;17.87;57.89
11856;BME280;5987;53.140;8.904;2022-09-01T07:46:57;102399.84;;;17.78;56.07
11856;BME280;5987;53.140;8.904;2022-09-01T07:50:21;102405.16;;;17.78;54.69
11856;BME280;5987;53.140;8.904;2022-09-01T07:53:42;102392.97;;;18.15;54.05
11856;BME280;5987;53.140;8.904;2022-09-01T07:56:48;102397.00;;;18.24;52.49
11856;BME280;5987;53.140;8.904;2022-09-01T07:59:51;102391.22;;;18.14;52.44
11856;BME280;5987;53.140;8.904;2022-09-01T08:02:57;102399.97;;;18.37;51.45
11856;BME280;5987;53.140;8.904;2022-09-01T08:06:07;102401.97;;;18.52;51.22
11856;BME280;5987;53.140;8.904;2022-09-01T08:09:12;102398.75;;;18.83;50.11
11856;BME280;5987;53.140;8.904;2022-09-01T08:12:38;102394.53;;;18.79;48.81
11856;BME280;5987;53.140;8.904;2022-09-01T08:15:43;102391.94;;;18.78;48.95
11856;BME280;5987;53.140;8.904;2022-09-01T08:19:06;102398.16;;;18.97;48.64
11856;BME280;5987;53.140;8.904;2022-09-01T08:22:18;102397.09;;;19.38;48.16
11856;BME280;5987;53.140;8.904;2022-09-01T08:25:24;102404.19;;;19.01;46.82
11856;BME280;5987;53.140;8.904;2022-09-01T08:28:29;102402.16;;;18.87;47.06
11856;BME280;5987;53.140;8.904;2022-09-01T08:31:33;102402.75;;;19.13;46.47
11856;BME280;5987;53.140;8.904;2022-09-01T08:34:38;102397.63;;;19.45;45.74
11856;BME280;5987;53.140;8.904;2022-09-01T08:37:42;102398.72;;;19.41;45.21
11856;BME280;5987;53.140;8.904;2022-09-01T08:40:52;102392.47;;;19.42;44.40
11856;BME280;5987;53.140;8.904;2022-09-01T08:44:12;102391.84;;;19.71;44.41
11856;BME280;5987;53.140;8.904;2022-09-01T08:47:18;102395.84;;;19.82;44.39
11856;BME280;5987;53.140;8.904;2022-09-01T08:50:43;102396.13;;;20.11;43.54
11856;BME280;5987;53.140;8.904;2022-09-01T08:54:03;102396.09;;;20.28;43.58
11856;BME280;5987;53.140;8.904;2022-09-01T08:57:15;102382.91;;;20.25;43.16
11856;BME280;5987;53.140;8.904;2022-09-01T09:00:26;102386.75;;;20.70;42.64
11856;BME280;5987;53.140;8.904;2022-09-01T09:03:39;102382.09;;;20.74;40.90
11856;BME280;5987;53.140;8.904;2022-09-01T09:06:56;102375.47;;;20.81;41.07
11856;BME280;5987;53.140;8.904;2022-09-01T09:10:15;102379.03;;;20.64;39.57
11856;BME280;5987;53.140;8.904;2022-09-01T09:13:30;102380.38;;;20.73;39.45
11856;BME280;5987;53.140;8.904;2022-09-01T09:16:42;102380.13;;;20.78;39.13
11856;BME280;5987;53.140;8.904;2022-09-01T09:19:55;102379.09;;;20.96;39.01
11856;BME280;5987;53.140;8.904;2022-09-01T09:23:22;102376.13;;;21.33;37.90
11856;BME280;5987;53.140;8.904;2022-09-01T09:26:30;102371.13;;;21.42;38.39
11856;BME280;5987;53.140;8.904;2022-09-01T09:29:51;102365.81;;;21.11;38.83
11856;BME280;5987;53.140;8.904;2022-09-01T09:33:00;102373.66;;;20.98;38.70
11856;BME280;5987;53.140;8.904;2022-09-01T09:36:33;102361.31;;;20.63;38.47
11856;BME280;5987;53.140;8.904;2022-09-01T09:39:37;102364.28;;;20.75;39.13
11856;BME280;5987;53.140;8.904;2022-09-01T09:43:01;102354.56;;;20.56;39.10
11856;BME280;5987;53.140;8.904;2022-09-01T09:46:33;102346.28;;;20.45;38.49
11856;BME280;5987;53.140;8.904;2022-09-01T09:49:39;102350.47;;;20.66;38.63
11856;BME280;5987;53.140;8.904;2022-09-01T09:52:52;102356.31;;;20.57;38.50
11856;BME280;5987;53.140;8.904;2022-09-01T09:56:19;102342.16;;;20.39;38.88
11856;BME280;5987;53.140;8.904;2022-09-01T09:59:29;102352.75;;;20.40;38.58
11856;BME280;5987;53.140;8.904;2022-09-01T10:02:58;102346.72;;;20.70;39.07
11856;BME280;5987;53.140;8.904;2022-09-01T10:06:30;102343.00;;;20.89;38.80
11856;BME280;5987;53.140;8.904;2022-09-01T10:09:36;102341.03;;;20.77;38.29
11856;BME280;5987;53.140;8.904;2022-09-01T10:12:40;102341.00;;;20.61;38.53
11856;BME280;5987;53.140;8.904;2022-09-01T10:15:49;102330.72;;;20.53;39.32
11856;BME280;5987;53.140;8.904;2022-09-01T10:18:58;102333.09;;;20.59;38.62
11856;BME280;5987;53.140;8.904;2022-09-01T10:22:07;102334.47;;;20.66;39.16
11856;BME280;5987;53.140;8.904;2022-09-01T10:25:17;102337.97;;;20.51;39.24
11856;BME280;5987;53.140;8.904;2022-09-01T10:28:22;102335.13;;;20.54;38.78
11856;BME280;5987;53.140;8.904;2022-09-01T10:31:28;102328.69;;;20.58;38.56
11856;BME280;5987;53.140;8.904;2022-09-01T10:34:36;102325.63;;;20.82;38.11
11856;BME280;5987;53.140;8.904;2022-09-01T10:37:46;102323.63;;;21.01;37.42
11856;BME280;5987;53.140;8.904;2022-09-01T10:40:52;102330.50;;;20.89;37.22
11856;BME280;5987;53.140;8.904;2022-09-01T10:44:11;102317.22;;;21.04;37.83
11856;BME280;5987;53.140;8.904;2022-09-01T10:47:26;102315.81;;;21.29;37.42
11856;BME280;5987;53.140;8.904;2022-09-01T10:50:32;102315.31;;;21.22;37.23
11856;BME280;5987;53.140;8.904;2022-09-01T10:53:40;102313.59;;;21.21;36.70
11856;BME280;5987;53.140;8.904;2022-09-01T10:56:48;102315.13;;;21.25;36.90
11856;BME280;5987;53.140;8.904;2022-09-01T11:00:20;102305.94;;;21.45;36.67
11856;BME280;5987;53.140;8.904;2022-09-01T11:04:05;102316.19;;;21.53;36.18
11856;BME280;5987;53.140;8.904;2022-09-01T11:07:30;102304.75;;;21.35;36.25
11856;BME280;5987;53.140;8.904;2022-09-01T11:11:01;102291.66;;;21.30;36.59
11856;BME280;5987;53.140;8.904;2022-09-01T11:14:18;102304.59;;;21.38;36.62
11856;BME280;5987;53.140;8.904;2022-09-01T11:17:26;102304.09;;;21.31;35.90
11856;BME280;5987;53.140;8.904;2022-09-01T11:20:33;102305.03;;;20.84;36.22
11856;BME280;5987;53.140;8.904;2022-09-01T11:23:38;102297.56;;;20.75;36.82
11856;BME280;5987;53.140;8.904;2022-09-01T11:26:48;102285.22;;;20.88;36.70
11856;BME280;5987;53.140;8.904;2022-09-01T11:29:55;102292.44;;;21.02;36.22
11856;BME280;5987;53.140;8.904;2022-09-01T11:33:16;102285.31;;;21.47;35.92
11856;BME280;5987;53.140;8.904;2022-09-01T11:36:29;102287.50;;;21.40;35.71
11856;BME280;5987;53.140;8.904;2022-09-01T11:39:41;102283.25;;;21.22;35.41
11856;BME280;5987;53.140;8.904;2022-09-01T11:42:48;102290.09;;;21.12;36.12
11856;BME280;5987;53.140;8.904;2022-09-01T11:46:09;102296.66;;;21.36;35.85
11856;BME280;5987;53.140;8.904;2022-09-01T11:49:30;102282.44;;;21.52;35.39
11856;BME280;5987;53.140;8.904;2022-09-01T11:52:37;102286.38;;;21.89;35.95
11856;BME280;5987;53.140;8.904;2022-09-01T11:55:46;102278.03;;;21.80;34.47
11856;BME280;5987;53.140;8.904;2022-09-01T11:58:52;102288.94;;;21.91;34.62
11856;BME280;5987;53.140;8.904;2022-09-01T12:01:57;102279.97;;;21.78;34.79
11856;BME280;5987;53.140;8.904;2022-09-01T12:05:08;102269.66;;;21.86;34.73
11856;BME280;5987;53.140;8.904;2022-09-01T12:08:29;102281.50;;;21.37;35.04
11856;BME280;5987;53.140;8.904;2022-09-01T12:11:34;102276.03;;;21.24;35.70
11856;BME280;5987;53.140;8.904;2022-09-01T12:14:39;102270.75;;;20.92;35.82
11856;BME280;5987;53.140;8.904;2022-09-01T12:18:17;102270.94;;;20.89;36.37
11856;BME280;5987;53.140;8.904;2022-09-01T12:21:25;102271.25;;;20.99;36.34
11856;BME280;5987;53.140;8.904;2022-09-01T12:24:34;102260.72;;;21.42;35.93
11856;BME280;5987;53.140;8.904;2022-09-01T12:27:38;102255.50;;;21.55;35.41
11856;BME280;5987;53.140;8.904;2022-09-01T12:30:44;102255.31;;;21.72;34.28
11856;BME280;5987;53.140;8.904;2022-09-01T12:33:49;102253.97;;;21.80;34.32
11856;BME280;5987;53.140;8.904;2022-09-01T12:37:08;102258.94;;;21.71;34.11
11856;BME280;5987;53.140;8.904;2022-09-01T12:40:25;102259.56;;;21.46;34.26
11856;BME280;5987;53.140;8.904;2022-09-01T12:43:36;102252.50;;;21.45;34.44
11856;BME280;5987;53.140;8.904;2022-09-01T12:46:44;102261.47;;;21.14;35.30
11856;BME280;5987;53.140;8.904;2022-09-01T12:49:48;102258.00;;;20.97;35.62
11856;BME280;5987;53.140;8.904;2022-09-01T12:52:55;102247.66;;;20.91;36.03
11856;BME280;5987;53.140;8.904;2022-09-01T12:56:26;102238.03;;;21.33;35.61
11856;BME280;5987;53.140;8.904;2022-09-01T12:59:32;102238.44;;;21.57;35.22
11856;BME280;5987;53.140;8.904;2022-09-01T13:02:43;102239.09;;;21.90;35.60
11856;BME280;5987;53.140;8.904;2022-09-01T13:05:51;102247.88;;;21.78;35.08
11856;BME280;5987;53.140;8.904;2022-09-01T13:08:55;102241.28;;;21.83;34.92
11856;BME280;5987;53.140;8.904;2022-09-01T13:12:11;102234.72;;;21.89;34.19
11856;BME280;5987;53.140;8.904;2022-09-01T13:15:40;102222.69;;;21.82;33.67
11856;BME280;5987;53.140;8.904;2022-09-01T13:18:46;102239.44;;;22.27;34.66
11856;BME280;5987;53.140;8.904;2022-09-01T13:22:10;102237.00;;;22.09;33.94
11856;BME280;5987;53.140;8.904;2022-09-01T13:25:18;102242.63;;;22.19;34.22
11856;BME280;5987;53.140;8.904;2022-09-01T13:28:22;102237.53;;;22.15;33.53
11856;BME280;5987;53.140;8.904;2022-09-01T13:31:31;102231.50;;;22.25;34.32
11856;BME280;5987;53.140;8.904;2022-09-01T13:34:40;102224.63;;;22.36;33.76
11856;BME280;5987;53.140;8.904;2022-09-01T13:37:45;102221.25;;;22.47;32.83
11856;BME280;5987;53.140;8.904;2022-09-01T13:40:50;102223.94;;;22.47;32.96
11856;BME280;5987;53.140;8.904;2022-09-01T13:43:54;102218.53;;;22.34;32.26
11856;BME280;5987;53.140;8.904;2022-09-01T13:46:58;102210.09;;;22.25;31.59
11856;BME280;5987;53.140;8.904;2022-09-01T13:50:22;102205.78;;;22.37;31.79
11856;BME280;5987;53.140;8.904;2022-09-01T13:53:46;102198.53;;;22.39;31.19
11856;BME280;5987;53.140;8.904;2022-09-01T13:56:53;102190.13;;;22.31;31.75
11856;BME280;5987;53.140;8.904;2022-09-01T13:59:57;102194.75;;;22.56;31.56
11856;BME280;5987;53.140;8.904;2022-09-01T14:03:05;102191.94;;;22.85;31.57
11856;BME280;5987;53.140;8.904;2022-09-01T14:06:11;102188.63;;;22.94;31.64
11856;BME280;5987;53.140;8.904;2022-09-01T14:09:15;102192.84;;;22.71;31.31
11856;BME280;5987;53.140;8.904;2022-09-01T14:12:19;102191.78;;;22.74;31.75
11856;BME280;5987;53.140;8.904;2022-09-01T14:15:23;102181.84;;;22.76;32.31
11856;BME280;5987;53.140;8.904;2022-09-01T14:18:28;102171.16;;;22.76;31.22
11856;BME280;5987;53.140;8.904;2022-09-01T14:21:39;102169.75;;;22.70;31.41
11856;BME280;5987;53.140;8.904;2022-09-01T14:24:42;102167.09;;;22.83;31.13
11856;BME280;5987;53.140;8.904;2022-09-01T14:27:47;102170.25;;;22.63;30.95
11856;BME280;5987;53.140;8.904;2022-09-01T14:30:52;102176.03;;;22.69;31.84
11856;BME280;5987;53.140;8.904;2022-09-01T14:33:55;102164.19;;;22.73;30.87
11856;BME280;5987;53.140;8.904;2022-09-01T14:37:00;102159.97;;;22.69;30.98
11856;BME280;5987;53.140;8.904;2022-09-01T14:40:08;102162.53;;;22.58;31.12
11856;BME280;5987;53.140;8.904;2022-09-01T14:43:18;102164.06;;;22.75;31.71
11856;BME280;5987;53.140;8.904;2022-09-01T14:46:23;102164.03;;;22.62;31.78
11856;BME280;5987;53.140;8.904;2022-09-01T14:49:27;102166.00;;;22.46;31.94
11856;BME280;5987;53.140;8.904;2022-09-01T14:52:35;102162.72;;;22.13;32.59
11856;BME280;5987;53.140;8.904;2022-09-01T14:55:39;102158.13;;;21.73;33.69
11856;BME280;5987;53.140;8.904;2022-09-01T14:58:46;102148.53;;;21.40;34.00
11856;BME280;5987;53.140;8.904;2022-09-01T15:01:50;102151.50;;;21.36;34.46
11856;BME280;5987;53.140;8.904;2022-09-01T15:04:55;102145.31;;;21.50;34.27
11856;BME280;5987;53.140;8.904;2022-09-01T15:08:00;102146.28;;;21.78;33.57
11856;BME280;5987;53.140;8.904;2022-09-01T15:11:08;102141.41;;;21.84;32.85
11856;BME280;5987;53.140;8.904;2022-09-01T15:14:13;102138.03;;;22.09;32.20
11856;BME280;5987;53.140;8.904;2022-09-01T15:17:17;102137.75;;;22.27;31.91
11856;BME280;5987;53.140;8.904;2022-09-01T15:20:22;102128.00;;;22.40;32.08
11856;BME280;5987;53.140;8.904;2022-09-01T15:23:44;102126.38;;;22.78;31.54
11856;BME280;5987;53.140;8.904;2022-09-01T15:26:49;102105.59;;;22.82;31.95
11856;BME280;5987;53.140;8.904;2022-09-01T15:29:53;102108.91;;;22.72;31.76
11856;BME280;5987;53.140;8.904;2022-09-01T15:32:57;102111.34;;;22.75;31.65
11856;BME280;5987;53.140;8.904;2022-09-01T15:36:01;102110.16;;;22.26;32.18
11856;BME280;5987;53.140;8.904;2022-09-01T15:39:07;102114.28;;;21.90;33.07
11856;BME280;5987;53.140;8.904;2022-09-01T15:42:11;102119.75;;;21.60;33.50
11856;BME280;5987;53.140;8.904;2022-09-01T15:45:23;102118.41;;;21.24;34.25
11856;BME280;5987;53.140;8.904;2022-09-01T15:48:28;102119.53;;;21.49;34.27
11856;BME280;5987;53.140;8.904;2022-09-01T15:51:34;102115.66;;;21.69;33.85
11856;BME280;5987;53.140;8.904;2022-09-01T15:54:39;102103.50;;;21.78;33.39
11856;BME280;5987;53.140;8.904;2022-09-01T15:57:43;102106.09;;;21.79;32.49
11856;BME280;5987;53.140;8.904;2022-09-01T16:00:47;102109.06;;;21.74;32.68
11856;BME280;5987;53.140;8.904;2022-09-01T16:03:54;102111.84;;;21.73;33.10
11856;BME280;5987;53.140;8.904;2022-09-01T16:06:58;102107.31;;;21.45;33.62
11856;BME280;5987;53.140;8.904;2022-09-01T16:10:05;102107.81;;;21.22;34.10
11856;BME280;5987;53.140;8.904;2022-09-01T16:13:13;102100.47;;;21.12;34.34
11856;BME280;5987;53.140;8.904;2022-09-01T16:16:33;102094.91;;;21.00;34.64
11856;BME280;5987;53.140;8.904;2022-09-01T16:19:51;102101.41;;;21.11;34.48
11856;BME280;5987;53.140;8.904;2022-09-01T16:23:07;102102.19;;;21.27;34.51
11856;BME280;5987;53.140;8.904;2022-09-01T16:26:15;102101.41;;;21.25;34.05
11856;BME280;5987;53.140;8.904;2022-09-01T16:29:27;102098.06;;;21.36;33.69
11856;BME280;5987;53.140;8.904;2022-09-01T16:32:37;102096.81;;;21.41;33.64
11856;BME280;5987;53.140;8.904;2022-09-01T16:35:50;102092.25;;;21.44;33.29
11856;BME280;5987;53.140;8.904;2022-09-01T16:39:06;102095.50;;;21.34;33.37
11856;BME280;5987;53.140;8.904;2022-09-01T16:42:26;102093.66;;;21.35;33.51